createdAt,value
2017-12-04T00:01:31.177Z,-0.30
2017-12-04T00:04:00.300Z,0.10
2017-12-04T00:06:28.592Z,0.10
2017-12-04T00:08:56.892Z,0.20
2017-12-04T00:11:25.252Z,0.10
2017-12-04T00:13:53.550Z,0.10
2017-12-04T00:16:21.849Z,0.10
2017-12-04T00:18:50.935Z,0.20
2017-12-04T00:21:19.244Z,0.20
2017-12-04T00:23:47.559Z,0.20
2017-12-04T00:26:15.869Z,0.20
2017-12-04T00:28:44.972Z,0.20
2017-12-04T00:31:14.042Z,0.20
2017-12-04T00:33:42.343Z,0.20
2017-12-04T00:36:11.428Z,0.20
2017-12-04T00:38:40.503Z,0.20
2017-12-04T00:41:08.832Z,0.20
2017-12-04T00:43:37.126Z,0.30
2017-12-04T00:46:05.448Z,0.20
2017-12-04T00:48:33.753Z,0.20
2017-12-04T00:51:02.108Z,0.30
2017-12-04T00:53:30.431Z,0.30
2017-12-04T00:55:58.724Z,0.30
2017-12-04T00:58:27.053Z,0.30
2017-12-04T01:00:56.112Z,0.30
2017-12-04T01:03:24.425Z,0.20
2017-12-04T01:05:53.512Z,0.20
2017-12-04T01:08:22.579Z,0.30
2017-12-04T01:10:50.910Z,0.30
2017-12-04T01:13:19.210Z,0.30
2017-12-04T01:15:47.516Z,0.30
2017-12-04T01:18:15.852Z,0.30
2017-12-04T01:20:44.144Z,0.30
2017-12-04T01:23:12.444Z,0.30
2017-12-04T01:25:40.760Z,0.30
2017-12-04T01:28:09.081Z,0.30
2017-12-04T01:30:37.420Z,0.30
2017-12-04T01:33:05.710Z,0.30
2017-12-04T01:35:34.048Z,0.30
2017-12-04T01:38:03.206Z,0.30
2017-12-04T01:40:31.497Z,0.30
2017-12-04T01:42:59.820Z,0.30
2017-12-04T01:45:28.120Z,0.30
2017-12-04T01:47:56.460Z,0.30
2017-12-04T01:50:25.558Z,0.40
2017-12-04T01:52:53.856Z,0.30
2017-12-04T01:55:22.170Z,0.30
2017-12-04T01:57:50.460Z,0.40
2017-12-04T02:00:18.821Z,0.30
2017-12-04T02:02:47.144Z,0.30
2017-12-04T02:05:15.440Z,0.30
2017-12-04T02:07:43.764Z,0.40
2017-12-04T02:10:12.068Z,0.40
2017-12-04T02:12:40.400Z,0.40
2017-12-04T02:15:08.697Z,0.40
2017-12-04T02:17:36.993Z,0.40
2017-12-04T02:20:06.108Z,0.40
2017-12-04T02:22:34.409Z,0.40
2017-12-04T02:25:02.714Z,0.40
2017-12-04T02:27:31.038Z,0.50
2017-12-04T02:29:59.333Z,0.40
2017-12-04T02:32:27.651Z,0.40
2017-12-04T02:34:55.951Z,0.40
2017-12-04T02:37:25.056Z,0.50
2017-12-04T02:39:53.402Z,0.40
2017-12-04T02:42:21.733Z,0.50
2017-12-04T02:44:50.041Z,0.50
2017-12-04T02:47:18.341Z,0.50
2017-12-04T02:49:47.454Z,0.50
2017-12-04T02:52:16.519Z,0.50
2017-12-04T02:54:44.856Z,0.50
2017-12-04T02:57:13.175Z,0.50
2017-12-04T02:59:41.497Z,0.50
2017-12-04T03:02:09.821Z,0.50
2017-12-04T03:04:38.132Z,0.50
2017-12-04T03:07:07.248Z,0.50
2017-12-04T03:09:35.553Z,0.50
2017-12-04T03:12:03.880Z,0.50
2017-12-04T03:14:33.054Z,0.50
2017-12-04T03:17:01.345Z,0.50
2017-12-04T03:19:30.438Z,0.50
2017-12-04T03:21:59.529Z,0.60
2017-12-04T03:24:28.616Z,0.60
2017-12-04T03:26:56.915Z,0.50
2017-12-04T03:29:29.096Z,0.60
2017-12-04T03:31:57.399Z,0.60
2017-12-04T03:34:25.692Z,0.60
2017-12-04T03:36:54.028Z,0.50
2017-12-04T03:39:22.316Z,0.60
2017-12-04T03:41:50.639Z,0.60
2017-12-04T03:44:18.931Z,0.60
2017-12-04T03:46:48.043Z,0.60
2017-12-04T03:49:16.337Z,0.60
2017-12-04T03:51:44.671Z,0.60
2017-12-04T03:54:13.118Z,0.70
2017-12-04T03:56:41.388Z,0.70
2017-12-04T03:59:09.682Z,0.60
2017-12-04T04:01:38.033Z,0.60
2017-12-04T04:04:06.328Z,0.60
2017-12-04T04:06:34.663Z,0.60
2017-12-04T04:09:02.971Z,0.60
2017-12-04T04:11:31.312Z,0.60
2017-12-04T04:14:00.369Z,0.60
2017-12-04T04:16:28.712Z,0.60
2017-12-04T04:18:57.039Z,0.50
2017-12-04T04:21:25.332Z,0.50
2017-12-04T04:23:54.416Z,0.50
2017-12-04T04:26:23.576Z,0.50
2017-12-04T04:28:51.865Z,0.50
2017-12-04T04:31:20.260Z,0.50
2017-12-04T04:33:48.600Z,0.50
2017-12-04T04:36:16.927Z,0.50
2017-12-04T04:38:46.028Z,0.50
2017-12-04T04:41:15.111Z,0.50
2017-12-04T04:43:44.199Z,0.50
2017-12-04T04:46:12.524Z,0.50
2017-12-04T04:48:40.864Z,0.50
2017-12-04T04:51:09.952Z,0.50
2017-12-04T04:53:38.252Z,0.50
2017-12-04T04:56:06.576Z,0.60
2017-12-04T04:58:34.884Z,0.60
2017-12-04T05:01:03.180Z,0.60
2017-12-04T05:03:32.298Z,0.60
2017-12-04T05:06:00.589Z,0.60
2017-12-04T05:08:28.996Z,0.60
2017-12-04T05:10:57.288Z,0.60
2017-12-04T05:13:25.627Z,0.60
2017-12-04T05:15:53.920Z,0.60
2017-12-04T05:18:22.252Z,0.70
2017-12-04T05:20:50.577Z,0.60
2017-12-04T05:23:18.903Z,0.60
2017-12-04T05:25:47.202Z,0.60
2017-12-04T05:28:15.528Z,0.60
2017-12-04T05:30:43.850Z,0.70
2017-12-04T05:33:12.187Z,0.70
2017-12-04T05:35:41.321Z,0.70
2017-12-04T05:38:09.636Z,0.60
2017-12-04T05:40:37.948Z,0.60
2017-12-04T05:43:07.053Z,0.70
2017-12-04T05:45:36.153Z,0.70
2017-12-04T05:48:04.468Z,0.70
2017-12-04T05:50:32.760Z,0.70
2017-12-04T05:53:01.075Z,0.70
2017-12-04T05:55:29.366Z,0.70
2017-12-04T05:57:57.688Z,0.70
2017-12-04T06:00:25.980Z,0.70
2017-12-04T06:02:55.087Z,0.70
2017-12-04T06:05:24.147Z,0.70
2017-12-04T06:07:52.456Z,0.70
2017-12-04T06:10:21.532Z,0.70
2017-12-04T06:12:49.847Z,0.70
2017-12-04T06:15:18.157Z,0.70
2017-12-04T06:17:46.569Z,0.70
2017-12-04T06:20:14.881Z,0.70
2017-12-04T06:22:43.177Z,0.70
2017-12-04T06:25:11.526Z,0.70
2017-12-04T06:27:39.839Z,0.70
2017-12-04T06:30:08.133Z,0.70
2017-12-04T06:32:36.462Z,0.80
2017-12-04T06:35:04.768Z,0.80
2017-12-04T06:37:33.113Z,0.80
2017-12-04T06:40:01.408Z,0.80
2017-12-04T06:42:29.714Z,0.80
2017-12-04T06:44:58.056Z,0.80
2017-12-04T06:47:26.356Z,0.80
2017-12-04T06:49:54.722Z,0.80
2017-12-04T06:52:23.071Z,0.80
2017-12-04T06:54:51.436Z,0.80
2017-12-04T06:57:20.528Z,0.80
2017-12-04T06:59:49.624Z,0.80
2017-12-04T07:02:18.764Z,0.80
2017-12-04T07:04:47.076Z,0.80
2017-12-04T07:07:15.397Z,0.80
2017-12-04T07:09:43.716Z,0.80
2017-12-04T07:12:12.026Z,0.80
2017-12-04T07:14:41.088Z,0.80
2017-12-04T07:17:09.479Z,0.80
2017-12-04T07:19:37.857Z,0.80
2017-12-04T07:22:06.198Z,0.80
2017-12-04T07:24:34.497Z,0.80
2017-12-04T07:27:02.823Z,0.90
2017-12-04T07:29:31.880Z,0.90
2017-12-04T07:32:00.225Z,0.90
2017-12-04T07:34:28.631Z,0.90
2017-12-04T07:36:56.941Z,0.90
2017-12-04T07:39:26.043Z,1.00
2017-12-04T07:41:55.124Z,1.00
2017-12-04T07:44:24.248Z,1.00
2017-12-04T07:46:52.560Z,1.00
2017-12-04T07:49:20.864Z,1.00
2017-12-04T07:51:49.189Z,1.00
2017-12-04T07:54:17.601Z,1.10
2017-12-04T07:56:45.962Z,1.00
2017-12-04T07:59:14.264Z,1.10
2017-12-04T08:01:42.600Z,1.00
2017-12-04T08:04:10.917Z,1.10
2017-12-04T08:06:39.253Z,1.10
2017-12-04T08:09:07.571Z,1.10
2017-12-04T08:11:35.884Z,1.10
2017-12-04T08:14:04.232Z,1.10
2017-12-04T08:16:32.572Z,1.10
2017-12-04T08:19:00.881Z,1.10
2017-12-04T08:21:29.192Z,1.20
2017-12-04T08:23:57.531Z,1.20
2017-12-04T08:26:25.853Z,1.20
2017-12-04T08:28:54.168Z,1.20
2017-12-04T08:31:22.478Z,1.20
2017-12-04T08:33:51.570Z,1.20
2017-12-04T08:36:19.897Z,1.20
2017-12-04T08:38:48.274Z,1.30
2017-12-04T08:41:16.590Z,1.30
2017-12-04T08:43:44.891Z,1.30
2017-12-04T08:46:14.075Z,1.40
2017-12-04T08:48:42.441Z,1.30
2017-12-04T08:51:10.745Z,1.40
2017-12-04T08:53:39.857Z,1.40
2017-12-04T08:56:08.164Z,1.40
2017-12-04T08:58:36.457Z,1.40
2017-12-04T09:01:04.785Z,1.50
2017-12-04T09:03:33.114Z,1.50
2017-12-04T09:06:01.689Z,1.50
2017-12-04T09:08:29.994Z,1.60
2017-12-04T09:10:58.296Z,1.60
2017-12-04T09:13:26.619Z,1.60
2017-12-04T09:15:54.921Z,1.60
2017-12-04T09:18:23.324Z,1.60
2017-12-04T09:20:51.659Z,1.60
2017-12-04T09:23:19.967Z,1.60
2017-12-04T09:25:49.061Z,1.60
2017-12-04T09:28:17.420Z,1.60
2017-12-04T09:30:45.744Z,1.60
2017-12-04T09:33:14.056Z,1.60
2017-12-04T09:35:42.361Z,1.70
2017-12-04T09:38:10.692Z,1.70
2017-12-04T09:40:39.018Z,1.60
2017-12-04T09:43:07.320Z,1.70
2017-12-04T09:45:35.693Z,1.70
2017-12-04T09:48:03.989Z,1.70
2017-12-04T09:50:32.319Z,1.70
2017-12-04T09:53:00.632Z,1.70
2017-12-04T09:55:28.977Z,1.70
2017-12-04T09:57:57.326Z,1.70
2017-12-04T10:00:25.626Z,1.80
2017-12-04T10:02:53.973Z,1.80
2017-12-04T10:05:22.268Z,1.80
2017-12-04T10:07:50.556Z,1.80
2017-12-04T10:10:18.873Z,1.80
2017-12-04T10:12:47.202Z,1.80
2017-12-04T10:15:15.518Z,1.90
2017-12-04T10:17:43.835Z,1.90
2017-12-04T10:20:12.144Z,1.90
2017-12-04T10:22:40.487Z,1.90
2017-12-04T10:25:08.812Z,1.90
2017-12-04T10:27:37.898Z,1.90
2017-12-04T10:30:06.961Z,2.00
2017-12-04T10:32:35.308Z,1.90
2017-12-04T10:35:03.617Z,2.00
2017-12-04T10:37:31.947Z,2.00
2017-12-04T10:40:00.265Z,2.00
2017-12-04T10:42:28.612Z,2.00
2017-12-04T10:44:56.936Z,2.10
2017-12-04T10:47:25.932Z,2.10
2017-12-04T10:49:54.296Z,2.10
2017-12-04T10:52:22.596Z,2.10
2017-12-04T10:54:50.904Z,2.10
2017-12-04T10:57:19.233Z,2.10
2017-12-04T10:59:47.532Z,2.10
2017-12-04T11:02:16.621Z,2.20
2017-12-04T11:04:44.921Z,2.20
2017-12-04T11:07:14.012Z,2.20
2017-12-04T11:09:43.167Z,2.30
2017-12-04T11:12:11.501Z,2.20
2017-12-04T11:14:39.818Z,2.30
2017-12-04T11:17:08.142Z,2.30
2017-12-04T11:19:36.535Z,2.30
2017-12-04T11:22:04.838Z,2.30
2017-12-04T11:24:33.148Z,2.30
2017-12-04T11:27:01.470Z,2.30
2017-12-04T11:29:29.789Z,2.40
2017-12-04T11:31:58.149Z,2.30
2017-12-04T11:34:26.496Z,2.40
2017-12-04T11:36:54.816Z,2.40
2017-12-04T11:39:23.331Z,2.40
2017-12-04T11:41:51.699Z,2.40
2017-12-04T11:44:20.017Z,2.40
2017-12-04T11:46:48.363Z,2.40
2017-12-04T11:49:17.443Z,2.50
2017-12-04T11:51:45.730Z,2.50
2017-12-04T11:54:14.052Z,2.40
2017-12-04T11:56:42.346Z,2.50
2017-12-04T11:59:10.740Z,2.50
2017-12-04T12:01:39.049Z,2.50
2017-12-04T12:04:07.375Z,2.50
2017-12-04T12:06:35.687Z,2.50
2017-12-04T12:09:03.977Z,2.50
2017-12-04T12:11:33.056Z,2.50
2017-12-04T12:14:01.359Z,2.50
2017-12-04T12:16:30.484Z,2.50
2017-12-04T12:18:58.816Z,2.50
2017-12-04T12:21:27.123Z,2.50
2017-12-04T12:23:55.454Z,2.50
2017-12-04T12:26:23.753Z,2.60
2017-12-04T12:28:52.865Z,2.50
2017-12-04T12:31:21.173Z,2.50
2017-12-04T12:33:49.455Z,2.60
2017-12-04T12:36:17.761Z,2.60
2017-12-04T12:38:46.060Z,2.60
2017-12-04T12:41:14.400Z,2.60
2017-12-04T12:43:42.733Z,2.60
2017-12-04T12:46:11.064Z,2.70
2017-12-04T12:48:39.356Z,2.60
2017-12-04T12:51:08.463Z,2.70
2017-12-04T12:53:37.592Z,2.70
2017-12-04T12:56:05.890Z,2.70
2017-12-04T12:58:34.418Z,2.70
2017-12-04T13:01:03.509Z,2.80
2017-12-04T13:03:32.587Z,2.70
2017-12-04T13:06:00.882Z,2.70
2017-12-04T13:08:29.968Z,2.80
2017-12-04T13:11:00.181Z,2.80
2017-12-04T13:13:28.516Z,2.80
2017-12-04T13:15:56.799Z,2.80
2017-12-04T13:18:25.132Z,2.80
2017-12-04T13:20:53.430Z,2.80
2017-12-04T13:23:21.748Z,2.80
2017-12-04T13:25:50.040Z,2.80
2017-12-04T13:28:18.407Z,2.90
2017-12-04T13:30:46.693Z,2.90
2017-12-04T13:33:32.696Z,2.90
2017-12-04T13:36:19.724Z,2.90
2017-12-04T13:38:48.775Z,2.90
2017-12-04T13:41:17.101Z,2.90
2017-12-04T13:43:45.421Z,2.90
2017-12-04T13:46:13.740Z,2.90
2017-12-04T13:48:42.796Z,3.00
2017-12-04T13:51:11.192Z,2.90
2017-12-04T13:53:39.517Z,3.00
2017-12-04T13:56:07.840Z,3.00
2017-12-04T13:58:36.139Z,3.00
2017-12-04T14:01:05.203Z,3.00
2017-12-04T14:03:33.599Z,2.90
2017-12-04T14:06:01.897Z,2.90
2017-12-04T14:08:30.986Z,2.90
2017-12-04T14:11:00.077Z,2.90
2017-12-04T14:13:29.177Z,2.90
2017-12-04T14:15:58.252Z,2.90
2017-12-04T14:18:26.567Z,2.90
2017-12-04T14:20:54.883Z,2.80
2017-12-04T14:23:23.175Z,2.90
2017-12-04T14:25:51.499Z,2.90
2017-12-04T14:28:19.792Z,2.90
2017-12-04T14:30:48.093Z,2.90
2017-12-04T14:33:16.408Z,2.90
2017-12-04T14:35:45.467Z,2.90
2017-12-04T14:38:13.788Z,2.90
2017-12-04T14:40:42.944Z,3.00
2017-12-04T14:43:11.242Z,2.90
2017-12-04T14:45:40.337Z,3.00
2017-12-04T14:48:08.730Z,2.90
2017-12-04T14:50:37.823Z,3.00
2017-12-04T14:53:06.937Z,3.00
2017-12-04T14:55:41.375Z,2.90
2017-12-04T14:58:09.706Z,3.00
2017-12-04T15:00:38.021Z,2.90
2017-12-04T15:03:06.328Z,3.00
2017-12-04T15:05:34.660Z,3.00
2017-12-04T15:08:02.993Z,2.90
2017-12-04T15:10:31.288Z,2.90
2017-12-04T15:12:59.610Z,3.00
2017-12-04T15:15:27.900Z,3.00
2017-12-04T15:17:56.275Z,3.00
2017-12-04T15:20:24.560Z,3.00
2017-12-04T15:22:52.876Z,3.00
2017-12-04T15:25:21.200Z,3.00
2017-12-04T15:27:55.587Z,3.00
2017-12-04T15:30:24.653Z,3.10
2017-12-04T15:32:53.025Z,3.10
2017-12-04T15:35:21.454Z,3.10
2017-12-04T15:37:49.744Z,3.10
2017-12-04T15:40:18.036Z,3.00
2017-12-04T15:42:46.466Z,3.10
2017-12-04T15:45:15.556Z,3.10
2017-12-04T15:47:44.616Z,3.10
2017-12-04T15:50:12.940Z,3.10
2017-12-04T15:52:42.017Z,3.10
2017-12-04T15:55:10.320Z,3.10
2017-12-04T15:57:38.641Z,3.10
2017-12-04T16:00:06.966Z,3.20
2017-12-04T16:02:35.267Z,3.20
2017-12-04T16:05:03.588Z,3.20
2017-12-04T16:07:32.720Z,3.20
2017-12-04T16:10:01.037Z,3.20
2017-12-04T16:12:29.376Z,3.30
2017-12-04T16:14:57.673Z,3.30
2017-12-04T16:20:17.808Z,3.30
2017-12-04T16:22:46.365Z,3.40
2017-12-04T16:25:14.684Z,3.40
2017-12-04T16:27:43.061Z,3.40
2017-12-04T16:30:12.208Z,3.40
2017-12-04T16:32:42.056Z,3.50
2017-12-04T16:35:10.366Z,3.50
2017-12-04T16:37:39.115Z,3.50
2017-12-04T16:40:08.090Z,3.50
2017-12-04T16:42:36.569Z,3.50
2017-12-04T16:45:04.988Z,3.50
2017-12-04T16:47:33.286Z,3.50
2017-12-04T16:50:01.632Z,3.50
2017-12-04T16:52:30.079Z,3.60
2017-12-04T16:55:05.064Z,3.60
2017-12-04T16:57:33.383Z,3.60
2017-12-04T17:00:01.737Z,3.70
2017-12-04T17:02:30.041Z,3.70
2017-12-04T17:04:58.404Z,3.70
2017-12-04T17:07:26.727Z,3.80
2017-12-04T17:09:55.023Z,3.80
2017-12-04T17:12:23.449Z,3.80
2017-12-04T17:14:52.503Z,3.80
2017-12-04T17:17:20.832Z,3.80
2017-12-04T17:19:49.124Z,3.80
2017-12-04T17:22:17.441Z,3.90
2017-12-04T17:24:45.761Z,3.90
2017-12-04T17:27:14.060Z,4.00
2017-12-04T17:29:42.472Z,4.00
2017-12-04T17:32:10.777Z,4.00
2017-12-04T17:34:39.168Z,4.00
2017-12-04T17:37:07.501Z,4.00
2017-12-04T17:39:36.708Z,4.00
2017-12-04T17:42:05.015Z,4.00
2017-12-04T17:44:33.316Z,4.00
2017-12-04T17:47:02.408Z,4.00
2017-12-04T17:49:30.739Z,4.00
2017-12-04T17:51:59.050Z,4.00
2017-12-04T17:54:28.113Z,4.00
2017-12-04T17:56:57.192Z,4.00
2017-12-04T17:59:25.533Z,4.00
2017-12-04T18:01:53.992Z,4.00
2017-12-04T18:04:22.293Z,4.00
2017-12-04T18:06:51.371Z,4.00
2017-12-04T18:09:20.610Z,4.00
2017-12-04T18:11:48.898Z,4.10
2017-12-04T18:14:17.287Z,4.00
2017-12-04T18:16:46.614Z,4.00
2017-12-04T18:19:16.678Z,3.90
2017-12-04T18:21:44.947Z,3.90
2017-12-04T18:24:13.409Z,3.90
2017-12-04T18:26:42.592Z,3.90
2017-12-04T18:29:13.156Z,3.90
2017-12-04T18:31:41.630Z,3.80
2017-12-04T18:34:11.190Z,3.90
2017-12-04T18:36:45.981Z,3.90
2017-12-04T18:39:14.383Z,3.90
2017-12-04T18:41:43.539Z,3.90
2017-12-04T18:44:12.606Z,3.80
2017-12-04T18:46:41.639Z,3.90
2017-12-04T18:49:10.128Z,3.90
2017-12-04T18:51:38.474Z,3.90
2017-12-04T18:54:13.376Z,3.90
2017-12-04T18:56:42.457Z,3.90
2017-12-04T18:59:10.806Z,3.90
2017-12-04T19:01:39.113Z,3.90
2017-12-04T19:04:07.444Z,3.90
2017-12-04T19:06:35.787Z,3.80
2017-12-04T19:09:04.096Z,3.80
2017-12-04T19:11:32.385Z,3.80
2017-12-04T19:14:01.451Z,3.80
2017-12-04T19:16:29.798Z,3.80
2017-12-04T19:18:58.860Z,3.80
2017-12-04T19:21:27.250Z,3.80
2017-12-04T19:23:55.575Z,3.80
2017-12-04T19:26:23.904Z,3.80
2017-12-04T19:28:52.313Z,3.80
2017-12-04T19:31:20.839Z,3.80
2017-12-04T19:33:49.890Z,3.80
2017-12-04T19:36:18.204Z,3.80
2017-12-04T19:38:46.531Z,3.80
2017-12-04T19:41:14.838Z,3.80
2017-12-04T19:43:43.158Z,3.80
2017-12-04T19:46:11.486Z,3.80
2017-12-04T19:48:39.790Z,3.80
2017-12-04T19:51:08.133Z,3.80
2017-12-04T19:53:36.416Z,3.80
2017-12-04T19:56:04.775Z,3.80
2017-12-04T19:58:33.884Z,3.80
2017-12-04T20:01:02.215Z,3.80
2017-12-04T20:03:30.527Z,3.80
2017-12-04T20:05:58.826Z,3.80
2017-12-04T20:08:28.117Z,3.70
2017-12-04T20:10:57.215Z,3.70
2017-12-04T20:13:25.543Z,3.70
2017-12-04T20:15:53.848Z,3.70
2017-12-04T20:18:22.903Z,3.70
2017-12-04T20:20:51.243Z,3.60
2017-12-04T20:23:19.583Z,3.70
2017-12-04T20:25:47.900Z,3.70
2017-12-04T20:28:16.264Z,3.70
2017-12-04T20:30:46.609Z,3.70
2017-12-04T20:33:14.909Z,3.70
2017-12-04T20:35:43.264Z,3.70
2017-12-04T20:38:11.569Z,3.70
2017-12-04T20:40:39.883Z,3.60
2017-12-04T20:43:08.171Z,3.60
2017-12-04T20:45:36.486Z,3.60
2017-12-04T20:48:04.819Z,3.60
2017-12-04T20:50:33.121Z,3.50
2017-12-04T20:53:01.435Z,3.50
2017-12-04T20:55:30.518Z,3.50
2017-12-04T20:57:58.826Z,3.40
2017-12-04T21:00:28.121Z,3.50
2017-12-04T21:02:56.450Z,3.40
2017-12-04T21:05:24.791Z,3.50
2017-12-04T21:07:53.895Z,3.40
2017-12-04T21:13:49.377Z,3.40
2017-12-04T21:16:45.248Z,3.40
2017-12-04T21:19:13.553Z,3.40
2017-12-04T21:21:41.950Z,3.40
2017-12-04T21:24:10.290Z,3.50
2017-12-04T21:26:38.697Z,3.50
2017-12-04T21:29:07.057Z,3.60
2017-12-04T21:31:35.384Z,3.60
2017-12-04T21:34:03.964Z,3.70
2017-12-04T21:36:32.401Z,3.70
2017-12-04T21:39:00.733Z,3.70
2017-12-04T21:41:29.056Z,3.70
2017-12-04T21:43:57.352Z,3.70
2017-12-04T21:46:25.699Z,3.70
2017-12-04T21:48:54.784Z,3.60
2017-12-04T21:51:23.086Z,3.60
2017-12-04T21:53:51.411Z,3.60
2017-12-04T21:56:19.722Z,3.60
2017-12-04T21:58:48.040Z,3.60
2017-12-04T22:01:17.176Z,3.50
2017-12-04T22:03:45.480Z,3.50
2017-12-04T22:06:13.796Z,3.50
2017-12-04T22:08:42.126Z,3.40
2017-12-04T22:11:11.186Z,3.40
2017-12-04T22:13:39.564Z,3.40
2017-12-04T22:16:07.882Z,3.40
2017-12-04T22:18:36.173Z,3.40
2017-12-04T22:21:04.488Z,3.40
2017-12-04T22:23:32.842Z,3.40
2017-12-04T22:26:01.239Z,3.40
2017-12-04T22:28:29.558Z,3.40
2017-12-04T22:30:57.863Z,3.40
2017-12-04T22:33:26.186Z,3.50
2017-12-04T22:35:55.255Z,3.40
2017-12-04T22:38:23.629Z,3.40
2017-12-04T22:40:52.015Z,3.50
2017-12-04T22:43:21.102Z,3.50
2017-12-04T22:45:49.456Z,3.50
2017-12-04T22:48:17.750Z,3.50
2017-12-04T22:50:46.828Z,3.60
2017-12-04T22:53:15.157Z,3.60
2017-12-04T22:55:44.233Z,3.60
2017-12-04T22:58:12.531Z,3.60
2017-12-04T23:00:40.895Z,3.60
2017-12-04T23:03:10.008Z,3.70
2017-12-04T23:05:39.078Z,3.70
2017-12-04T23:08:07.430Z,3.70
2017-12-04T23:10:36.561Z,3.80
2017-12-04T23:13:04.868Z,3.80
2017-12-04T23:15:33.196Z,3.90
2017-12-04T23:18:01.535Z,3.90
2017-12-04T23:20:29.825Z,3.90
2017-12-04T23:22:58.191Z,3.90
2017-12-04T23:25:26.513Z,4.00
2017-12-04T23:27:54.812Z,4.00
2017-12-04T23:30:23.154Z,4.00
2017-12-04T23:32:51.448Z,4.00
2017-12-04T23:35:19.783Z,4.00
2017-12-04T23:37:48.856Z,4.00
2017-12-04T23:40:17.161Z,4.00
2017-12-04T23:42:45.480Z,4.00
2017-12-04T23:45:13.807Z,4.00
2017-12-04T23:47:43.016Z,4.00
2017-12-04T23:50:11.321Z,4.00
2017-12-04T23:52:40.274Z,4.10
2017-12-04T23:55:08.602Z,4.10
2017-12-04T23:57:36.921Z,4.10
